Kezdőlap
METAR-TAF:

METAR-TAF

Repülőterek :

Kóbe, Japán

földrajzi szélesség: 34-37-58N, földrajzi hosszúság: 135-13-26E, magasság: 7 m

Jelenlegi meteorológiai megfigyelések

A jelentés 51 perccel ezelõtt készült, 10:00 UTC
Nyugati szél 9 kt
Hőmérséklet 28°C
Páratartalom 79%
Légköri nyomás 1010 hPa
Látótávolság 10 km, vagy több
Kevés felhő 1500 lábon
Szakadozott felhőzet

METAR: RJBE 181000Z 27009KT 9999 FEW015 BKN/// 28/24 Q1010

Idő: 19:51 (10:51 UTC)


TAF: hiányzik

Meteorológiai megfigyelések és előrejelzések több, mint 4000 repülőtéren (METAR és TAF jelentéseket).

A térképen piros és sárga pontok jelzik az elérhető meteorológiai állomásokat.

Mozgassa az egeret a pont fölött, hogy megjelenjen az állomás neve.

Azután kattintson az időjárási megfigyelések és előrejelzések megtekintéséhez.

A térkép megváltoztatása: kattintson a fekete keresztel jelölt zöld gombra ráközelítéshez, a vonallal jelölt zöld gombra távolításhoz, vagy a zöld nyilakra a szomszédos térképek eléréséhez.


METAR-TAF: